sensor_id;sensor_type;location;lat;lon;timestamp;pressure;altitude;pressure_sealevel;temperature;humidity
10127;BME280;13080;42.608;23.362;2023-10-08T00:01:08;153727.69;;;10.38;52.51
10127;BME280;13080;42.608;23.362;2023-10-08T00:03:37;153713.44;;;10.32;52.38
10127;BME280;13080;42.608;23.362;2023-10-08T00:06:05;153718.63;;;10.34;51.85
10127;BME280;13080;42.608;23.362;2023-10-08T00:08:38;153714.72;;;10.33;52.19
10127;BME280;13080;42.608;23.362;2023-10-08T00:11:05;153713.44;;;10.32;52.63
10127;BME280;13080;42.608;23.362;2023-10-08T00:13:33;153708.22;;;10.30;53.15
10127;BME280;13080;42.608;23.362;2023-10-08T00:16:05;153706.94;;;10.30;53.35
10127;BME280;13080;42.608;23.362;2023-10-08T00:18:35;153697.78;;;10.26;53.79
10127;BME280;13080;42.608;23.362;2023-10-08T00:21:02;153695.22;;;10.25;53.60
10127;BME280;13080;42.608;23.362;2023-10-08T00:23:43;153691.28;;;10.24;54.29
10127;BME280;13080;42.608;23.362;2023-10-08T00:26:16;153670.50;;;10.15;54.31
10127;BME280;13080;42.608;23.362;2023-10-08T00:28:54;153674.41;;;10.17;54.80
10127;BME280;13080;42.608;23.362;2023-10-08T00:31:21;153657.53;;;10.10;54.84
10127;BME280;13080;42.608;23.362;2023-10-08T00:33:55;153643.28;;;10.05;55.25
10127;BME280;13080;42.608;23.362;2023-10-08T00:36:22;153632.88;;;10.01;55.59
10127;BME280;13080;42.608;23.362;2023-10-08T00:38:50;153617.28;;;9.94;56.34
10127;BME280;13080;42.608;23.362;2023-10-08T00:41:18;153610.81;;;9.92;56.64
10127;BME280;13080;42.608;23.362;2023-10-08T00:43:47;153605.63;;;9.90;56.50
10127;BME280;13080;42.608;23.362;2023-10-08T00:46:15;153619.91;;;9.95;56.57
10127;BME280;13080;42.608;23.362;2023-10-08T00:48:49;153631.59;;;10.00;56.82
10127;BME280;13080;42.608;23.362;2023-10-08T00:51:19;153622.50;;;9.96;56.75
10127;BME280;13080;42.608;23.362;2023-10-08T00:54:02;153619.91;;;9.95;56.21
10127;BME280;13080;42.608;23.362;2023-10-08T00:56:37;153622.50;;;9.96;55.93
10127;BME280;13080;42.608;23.362;2023-10-08T00:59:16;153628.97;;;9.99;56.53
10127;BME280;13080;42.608;23.362;2023-10-08T01:01:47;153640.66;;;10.04;56.67
10127;BME280;13080;42.608;23.362;2023-10-08T01:04:17;153617.28;;;9.94;56.97
10127;BME280;13080;42.608;23.362;2023-10-08T01:06:47;153606.91;;;9.90;57.38
10127;BME280;13080;42.608;23.362;2023-10-08T01:09:18;153621.19;;;9.96;57.96
10127;BME280;13080;42.608;23.362;2023-10-08T01:12:11;153597.84;;;9.87;58.20
10127;BME280;13080;42.608;23.362;2023-10-08T01:14:41;153588.72;;;9.83;57.98
10127;BME280;13080;42.608;23.362;2023-10-08T01:17:09;153567.94;;;9.75;58.93
10127;BME280;13080;42.608;23.362;2023-10-08T01:19:40;153567.94;;;9.75;58.54
10127;BME280;13080;42.608;23.362;2023-10-08T01:22:09;153560.19;;;9.72;58.21
10127;BME280;13080;42.608;23.362;2023-10-08T01:24:44;153561.47;;;9.72;58.81
10127;BME280;13080;42.608;23.362;2023-10-08T01:27:11;153578.34;;;9.79;58.55
10127;BME280;13080;42.608;23.362;2023-10-08T01:29:38;153569.28;;;9.75;58.43
10127;BME280;13080;42.608;23.362;2023-10-08T01:32:05;153587.44;;;9.83;58.15
10127;BME280;13080;42.608;23.362;2023-10-08T01:34:37;153573.16;;;9.77;58.37
10127;BME280;13080;42.608;23.362;2023-10-08T01:37:04;153557.59;;;9.71;58.98
10127;BME280;13080;42.608;23.362;2023-10-08T01:39:37;153544.59;;;9.66;59.30
10127;BME280;13080;42.608;23.362;2023-10-08T01:42:05;153530.34;;;9.60;58.99
10127;BME280;13080;42.608;23.362;2023-10-08T01:44:40;153526.44;;;9.58;58.45
10127;BME280;13080;42.608;23.362;2023-10-08T01:47:07;153543.31;;;9.65;58.23
10127;BME280;13080;42.608;23.362;2023-10-08T01:49:37;153542.03;;;9.65;58.89
10127;BME280;13080;42.608;23.362;2023-10-08T01:52:05;153548.50;;;9.67;59.07
10127;BME280;13080;42.608;23.362;2023-10-08T01:54:39;153530.34;;;9.60;59.44
10127;BME280;13080;42.608;23.362;2023-10-08T01:57:06;153521.25;;;9.56;59.67
10127;BME280;13080;42.608;23.362;2023-10-08T01:59:35;153513.47;;;9.53;59.44
10127;BME280;13080;42.608;23.362;2023-10-08T02:02:03;153504.38;;;9.50;59.38
10127;BME280;13080;42.608;23.362;2023-10-08T02:04:31;153500.47;;;9.48;58.90
10127;BME280;13080;42.608;23.362;2023-10-08T02:07:01;153508.28;;;9.51;59.12
10127;BME280;13080;42.608;23.362;2023-10-08T02:09:29;153507.00;;;9.51;59.00
10127;BME280;13080;42.608;23.362;2023-10-08T02:11:57;153505.66;;;9.50;58.84
10127;BME280;13080;42.608;23.362;2023-10-08T02:14:24;153510.84;;;9.52;59.66
10127;BME280;13080;42.608;23.362;2023-10-08T02:16:51;153512.19;;;9.53;60.17
10127;BME280;13080;42.608;23.362;2023-10-08T02:19:21;153491.41;;;9.45;60.53
10127;BME280;13080;42.608;23.362;2023-10-08T02:21:52;153505.66;;;9.50;60.70
10127;BME280;13080;42.608;23.362;2023-10-08T02:24:20;153481.00;;;9.41;60.99
10127;BME280;13080;42.608;23.362;2023-10-08T02:26:50;153465.44;;;9.34;61.91
10127;BME280;13080;42.608;23.362;2023-10-08T02:29:19;153458.94;;;9.32;61.61
10127;BME280;13080;42.608;23.362;2023-10-08T02:31:45;153448.56;;;9.28;62.14
10127;BME280;13080;42.608;23.362;2023-10-08T02:34:13;153440.78;;;9.25;61.61
10127;BME280;13080;42.608;23.362;2023-10-08T02:36:40;153447.28;;;9.27;61.62
10127;BME280;13080;42.608;23.362;2023-10-08T02:39:08;153456.38;;;9.31;60.82
10127;BME280;13080;42.608;23.362;2023-10-08T02:41:43;153465.44;;;9.34;60.19
10127;BME280;13080;42.608;23.362;2023-10-08T02:44:12;153474.53;;;9.38;60.84
10127;BME280;13080;42.608;23.362;2023-10-08T02:46:41;153488.78;;;9.44;60.77
10127;BME280;13080;42.608;23.362;2023-10-08T02:49:10;153481.00;;;9.41;60.09
10127;BME280;13080;42.608;23.362;2023-10-08T02:51:39;153508.28;;;9.51;60.25
10127;BME280;13080;42.608;23.362;2023-10-08T02:54:07;153495.31;;;9.46;60.57
10127;BME280;13080;42.608;23.362;2023-10-08T02:56:42;153493.97;;;9.46;60.93
10127;BME280;13080;42.608;23.362;2023-10-08T02:59:10;153478.44;;;9.40;61.28
10127;BME280;13080;42.608;23.362;2023-10-08T03:01:38;153479.72;;;9.40;61.26
10127;BME280;13080;42.608;23.362;2023-10-08T03:04:07;153473.25;;;9.38;60.99
10127;BME280;13080;42.608;23.362;2023-10-08T03:06:43;153478.44;;;9.40;60.45
10127;BME280;13080;42.608;23.362;2023-10-08T03:09:09;153491.41;;;9.45;60.24
10127;BME280;13080;42.608;23.362;2023-10-08T03:11:39;153512.19;;;9.53;60.23
10127;BME280;13080;42.608;23.362;2023-10-08T03:14:12;153534.19;;;9.62;59.81
10127;BME280;13080;42.608;23.362;2023-10-08T03:16:48;153553.69;;;9.69;60.08
10127;BME280;13080;42.608;23.362;2023-10-08T03:19:17;153560.19;;;9.72;59.61
10127;BME280;13080;42.608;23.362;2023-10-08T03:21:46;153575.78;;;9.78;59.50
10127;BME280;13080;42.608;23.362;2023-10-08T03:24:17;153584.81;;;9.82;59.39
10127;BME280;13080;42.608;23.362;2023-10-08T03:26:56;153592.66;;;9.85;59.15
10127;BME280;13080;42.608;23.362;2023-10-08T03:29:32;153605.63;;;9.90;59.17
10127;BME280;13080;42.608;23.362;2023-10-08T03:32:06;153608.19;;;9.91;59.55
10127;BME280;13080;42.608;23.362;2023-10-08T03:34:39;153597.84;;;9.87;59.59
10127;BME280;13080;42.608;23.362;2023-10-08T03:37:08;153591.31;;;9.84;59.44
10127;BME280;13080;42.608;23.362;2023-10-08T03:39:37;153580.97;;;9.80;59.47
10127;BME280;13080;42.608;23.362;2023-10-08T03:42:20;153588.72;;;9.83;59.50
10127;BME280;13080;42.608;23.362;2023-10-08T03:44:55;153587.44;;;9.83;59.84
10127;BME280;13080;42.608;23.362;2023-10-08T03:47:22;153573.16;;;9.77;59.84
10127;BME280;13080;42.608;23.362;2023-10-08T03:49:53;153570.56;;;9.76;59.88
10127;BME280;13080;42.608;23.362;2023-10-08T03:52:20;153552.41;;;9.69;60.33
10127;BME280;13080;42.608;23.362;2023-10-08T03:54:48;153542.03;;;9.65;59.65
10127;BME280;13080;42.608;23.362;2023-10-08T03:57:29;153557.59;;;9.71;58.94
10127;BME280;13080;42.608;23.362;2023-10-08T04:00:08;153551.06;;;9.68;59.54
10127;BME280;13080;42.608;23.362;2023-10-08T04:02:39;153542.03;;;9.65;59.22
10127;BME280;13080;42.608;23.362;2023-10-08T04:05:08;153535.53;;;9.62;59.33
10127;BME280;13080;42.608;23.362;2023-10-08T04:07:45;153534.19;;;9.62;59.74
10127;BME280;13080;42.608;23.362;2023-10-08T04:10:32;153556.28;;;9.70;59.13
10127;BME280;13080;42.608;23.362;2023-10-08T04:13:25;153573.16;;;9.77;58.68
10127;BME280;13080;42.608;23.362;2023-10-08T04:15:51;153603.03;;;9.89;58.32
10127;BME280;13080;42.608;23.362;2023-10-08T04:18:18;153614.72;;;9.93;58.43
10127;BME280;13080;42.608;23.362;2023-10-08T04:20:47;153621.19;;;9.96;58.54
10127;BME280;13080;42.608;23.362;2023-10-08T04:23:26;153621.19;;;9.96;58.23
10127;BME280;13080;42.608;23.362;2023-10-08T04:25:54;153617.28;;;9.94;58.28
10127;BME280;13080;42.608;23.362;2023-10-08T04:28:21;153630.25;;;9.99;58.32
10127;BME280;13080;42.608;23.362;2023-10-08T04:30:48;153639.38;;;10.03;58.01
10127;BME280;13080;42.608;23.362;2023-10-08T04:33:16;153652.34;;;10.08;57.73
10127;BME280;13080;42.608;23.362;2023-10-08T04:35:46;153691.28;;;10.24;57.77
10127;BME280;13080;42.608;23.362;2023-10-08T04:38:19;153661.44;;;10.12;58.16
10127;BME280;13080;42.608;23.362;2023-10-08T04:40:47;153647.13;;;10.06;58.13
10127;BME280;13080;42.608;23.362;2023-10-08T04:43:19;153638.09;;;10.03;58.68
10127;BME280;13080;42.608;23.362;2023-10-08T04:45:50;153617.28;;;9.94;59.31
10127;BME280;13080;42.608;23.362;2023-10-08T04:48:17;153600.41;;;9.88;60.09
10127;BME280;13080;42.608;23.362;2023-10-08T04:50:47;153590.03;;;9.84;61.59
10127;BME280;13080;42.608;23.362;2023-10-08T04:53:27;153591.31;;;9.84;60.87
10127;BME280;13080;42.608;23.362;2023-10-08T04:56:02;153583.53;;;9.81;61.63
10127;BME280;13080;42.608;23.362;2023-10-08T04:58:31;153574.47;;;9.77;61.29
10127;BME280;13080;42.608;23.362;2023-10-08T05:01:02;153567.94;;;9.75;61.13
10127;BME280;13080;42.608;23.362;2023-10-08T05:03:57;153560.19;;;9.72;61.21
10127;BME280;13080;42.608;23.362;2023-10-08T05:06:49;153549.78;;;9.68;61.90
10127;BME280;13080;42.608;23.362;2023-10-08T05:09:44;153556.28;;;9.70;62.53
10127;BME280;13080;42.608;23.362;2023-10-08T05:12:18;153552.41;;;9.69;63.58
10127;BME280;13080;42.608;23.362;2023-10-08T05:15:03;153548.50;;;9.67;62.86
10127;BME280;13080;42.608;23.362;2023-10-08T05:17:56;153574.47;;;9.77;61.07
10127;BME280;13080;42.608;23.362;2023-10-08T05:20:35;153588.72;;;9.83;61.42
10127;BME280;13080;42.608;23.362;2023-10-08T05:23:25;153613.38;;;9.93;60.74
10127;BME280;13080;42.608;23.362;2023-10-08T05:26:09;153621.19;;;9.96;61.40
10127;BME280;13080;42.608;23.362;2023-10-08T05:28:46;153623.78;;;9.97;61.38
10127;BME280;13080;42.608;23.362;2023-10-08T05:31:26;153670.50;;;10.15;61.14
10127;BME280;13080;42.608;23.362;2023-10-08T05:34:12;153692.59;;;10.24;59.77
10127;BME280;13080;42.608;23.362;2023-10-08T05:36:45;153700.41;;;10.27;60.74
10127;BME280;13080;42.608;23.362;2023-10-08T05:39:37;153725.09;;;10.37;62.07
10127;BME280;13080;42.608;23.362;2023-10-08T05:42:08;153718.63;;;10.34;63.09
10127;BME280;13080;42.608;23.362;2023-10-08T05:44:44;153723.81;;;10.36;62.22
10127;BME280;13080;42.608;23.362;2023-10-08T05:47:13;153752.38;;;10.48;62.66
10127;BME280;13080;42.608;23.362;2023-10-08T05:50:04;153775.75;;;10.57;61.75
10127;BME280;13080;42.608;23.362;2023-10-08T05:52:49;153803.06;;;10.68;58.60
10127;BME280;13080;42.608;23.362;2023-10-08T05:55:40;153827.72;;;10.77;57.23
10127;BME280;13080;42.608;23.362;2023-10-08T05:58:13;153866.69;;;10.93;56.45
10127;BME280;13080;42.608;23.362;2023-10-08T06:00:50;153912.16;;;11.11;55.16
10127;BME280;13080;42.608;23.362;2023-10-08T06:03:34;153952.44;;;11.27;54.78
10127;BME280;13080;42.608;23.362;2023-10-08T06:06:14;154018.72;;;11.53;54.46
10127;BME280;13080;42.608;23.362;2023-10-08T06:09:03;154060.31;;;11.69;55.46
10127;BME280;13080;42.608;23.362;2023-10-08T06:11:47;154100.59;;;11.85;56.92
10127;BME280;13080;42.608;23.362;2023-10-08T06:14:34;154112.34;;;11.90;56.78
10127;BME280;13080;42.608;23.362;2023-10-08T06:17:18;154129.25;;;11.96;58.07
10127;BME280;13080;42.608;23.362;2023-10-08T06:19:59;154126.69;;;11.95;60.66
10127;BME280;13080;42.608;23.362;2023-10-08T06:22:35;154139.66;;;12.00;62.26
10127;BME280;13080;42.608;23.362;2023-10-08T06:25:03;154153.94;;;12.06;62.08
10127;BME280;13080;42.608;23.362;2023-10-08T06:27:43;154177.38;;;12.15;60.40
10127;BME280;13080;42.608;23.362;2023-10-08T06:30:11;154198.16;;;12.23;60.25
10127;BME280;13080;42.608;23.362;2023-10-08T06:32:43;154212.50;;;12.29;59.71
10127;BME280;13080;42.608;23.362;2023-10-08T06:35:11;154224.19;;;12.34;57.96
10127;BME280;13080;42.608;23.362;2023-10-08T06:37:43;154252.81;;;12.45;56.45
10127;BME280;13080;42.608;23.362;2023-10-08T06:40:12;154280.13;;;12.56;57.77
10127;BME280;13080;42.608;23.362;2023-10-08T06:43:06;154338.66;;;12.79;55.90
10127;BME280;13080;42.608;23.362;2023-10-08T06:45:37;154377.69;;;12.94;54.74
10127;BME280;13080;42.608;23.362;2023-10-08T06:48:05;154419.31;;;13.10;55.20
10127;BME280;13080;42.608;23.362;2023-10-08T06:50:34;154438.81;;;13.18;55.08
10127;BME280;13080;42.608;23.362;2023-10-08T06:53:01;154403.69;;;13.04;54.01
10127;BME280;13080;42.608;23.362;2023-10-08T06:55:34;154403.69;;;13.04;55.20
10127;BME280;13080;42.608;23.362;2023-10-08T06:58:01;154423.22;;;13.12;54.33
10127;BME280;13080;42.608;23.362;2023-10-08T07:00:32;154437.50;;;13.18;54.72
10127;BME280;13080;42.608;23.362;2023-10-08T07:03:08;154475.31;;;13.33;52.78
10127;BME280;13080;42.608;23.362;2023-10-08T07:05:37;154531.28;;;13.55;51.56
10127;BME280;13080;42.608;23.362;2023-10-08T07:08:07;154588.56;;;13.77;51.40
10127;BME280;13080;42.608;23.362;2023-10-08T07:10:36;154631.50;;;13.94;50.97
10127;BME280;13080;42.608;23.362;2023-10-08T07:13:03;154704.44;;;14.23;51.28
10127;BME280;13080;42.608;23.362;2023-10-08T07:15:33;154776.09;;;14.51;47.04
10127;BME280;13080;42.608;23.362;2023-10-08T07:18:04;154824.31;;;14.70;47.70
10127;BME280;13080;42.608;23.362;2023-10-08T07:20:39;154845.16;;;14.78;48.04
10127;BME280;13080;42.608;23.362;2023-10-08T07:23:08;154850.38;;;14.80;49.16
10127;BME280;13080;42.608;23.362;2023-10-08T07:25:46;154865.97;;;14.86;49.48
10127;BME280;13080;42.608;23.362;2023-10-08T07:28:19;154877.72;;;14.91;49.60
10127;BME280;13080;42.608;23.362;2023-10-08T07:30:46;154869.91;;;14.88;49.91
10127;BME280;13080;42.608;23.362;2023-10-08T07:33:15;154888.13;;;14.95;48.97
10127;BME280;13080;42.608;23.362;2023-10-08T07:35:46;154898.56;;;14.99;50.47
10127;BME280;13080;42.608;23.362;2023-10-08T07:38:20;154945.47;;;15.17;48.40
10127;BME280;13080;42.608;23.362;2023-10-08T07:40:49;154965.03;;;15.25;48.26
10127;BME280;13080;42.608;23.362;2023-10-08T07:43:18;154987.22;;;15.34;50.16
10127;BME280;13080;42.608;23.362;2023-10-08T07:45:46;154989.78;;;15.35;50.99
10127;BME280;13080;42.608;23.362;2023-10-08T07:48:12;155027.59;;;15.50;50.26
10127;BME280;13080;42.608;23.362;2023-10-08T07:50:42;155048.44;;;15.58;49.38
10127;BME280;13080;42.608;23.362;2023-10-08T07:53:11;155044.56;;;15.56;50.18
10127;BME280;13080;42.608;23.362;2023-10-08T07:55:47;155073.22;;;15.68;51.40
10127;BME280;13080;42.608;23.362;2023-10-08T07:58:16;155074.53;;;15.68;49.46
10127;BME280;13080;42.608;23.362;2023-10-08T08:00:44;155114.97;;;15.84;47.05
10127;BME280;13080;42.608;23.362;2023-10-08T08:03:21;155159.31;;;16.02;49.40
10127;BME280;13080;42.608;23.362;2023-10-08T08:05:48;155180.16;;;16.10;49.49
10127;BME280;13080;42.608;23.362;2023-10-08T08:08:19;155203.69;;;16.19;48.65
10127;BME280;13080;42.608;23.362;2023-10-08T08:10:48;155207.56;;;16.20;47.59
10127;BME280;13080;42.608;23.362;2023-10-08T08:13:24;155237.59;;;16.32;48.46
10127;BME280;13080;42.608;23.362;2023-10-08T08:15:54;155250.59;;;16.37;48.60
10127;BME280;13080;42.608;23.362;2023-10-08T08:18:25;155276.66;;;16.48;45.17
10127;BME280;13080;42.608;23.362;2023-10-08T08:20:59;155336.69;;;16.71;44.45
10127;BME280;13080;42.608;23.362;2023-10-08T08:23:29;155385.00;;;16.90;43.76
10127;BME280;13080;42.608;23.362;2023-10-08T08:25:58;155404.59;;;16.98;44.66
10127;BME280;13080;42.608;23.362;2023-10-08T08:28:39;155441.13;;;17.12;45.34
10127;BME280;13080;42.608;23.362;2023-10-08T08:31:06;155507.69;;;17.38;42.13
10127;BME280;13080;42.608;23.362;2023-10-08T08:33:41;155644.81;;;17.92;41.27
10127;BME280;13080;42.608;23.362;2023-10-08T08:36:22;155728.34;;;18.25;38.62
10127;BME280;13080;42.608;23.362;2023-10-08T08:38:49;155728.34;;;18.25;38.62
10127;BME280;13080;42.608;23.362;2023-10-08T08:41:15;155882.53;;;18.85;37.40
10127;BME280;13080;42.608;23.362;2023-10-08T08:43:47;62715.63;;;-145.47;100.00
10127;BME280;13080;42.608;23.362;2023-10-08T08:46:15;62715.63;;;-145.47;100.00
10127;BME280;13080;42.608;23.362;2023-10-08T08:48:43;62715.63;;;-145.47;100.00
10127;BME280;13080;42.608;23.362;2023-10-08T08:51:11;62715.63;;;-145.47;100.00
10127;BME280;13080;42.608;23.362;2023-10-08T08:53:39;62715.63;;;-145.47;100.00
10127;BME280;13080;42.608;23.362;2023-10-08T08:56:07;62715.63;;;-145.47;100.00
10127;BME280;13080;42.608;23.362;2023-10-08T08:58:36;62715.63;;;-145.47;100.00
10127;BME280;13080;42.608;23.362;2023-10-08T09:01:06;62715.63;;;-145.47;100.00
10127;BME280;13080;42.608;23.362;2023-10-08T09:03:35;62715.63;;;-145.47;100.00
10127;BME280;13080;42.608;23.362;2023-10-08T09:06:02;155971.41;;;19.20;35.00
10127;BME280;13080;42.608;23.362;2023-10-08T09:08:33;156313.97;;;20.54;34.11
10127;BME280;13080;42.608;23.362;2023-10-08T09:11:01;156370.28;;;20.76;33.33
10127;BME280;13080;42.608;23.362;2023-10-08T09:13:30;156405.59;;;20.90;33.02
10127;BME280;13080;42.608;23.362;2023-10-08T09:16:02;156422.59;;;20.97;33.63
10127;BME280;13080;42.608;23.362;2023-10-08T09:18:31;156404.28;;;20.90;33.83
10127;BME280;13080;42.608;23.362;2023-10-08T09:21:07;156393.81;;;20.86;32.97
10127;BME280;13080;42.608;23.362;2023-10-08T09:23:39;156372.88;;;20.77;34.32
10127;BME280;13080;42.608;23.362;2023-10-08T09:26:08;156285.19;;;20.43;33.26
10127;BME280;13080;42.608;23.362;2023-10-08T09:28:36;156205.44;;;20.12;33.88
10127;BME280;13080;42.608;23.362;2023-10-08T09:31:05;156166.19;;;19.97;34.23
10127;BME280;13080;42.608;23.362;2023-10-08T09:33:33;156176.66;;;20.01;33.82
10127;BME280;13080;42.608;23.362;2023-10-08T09:36:01;156206.72;;;20.12;34.60
10127;BME280;13080;42.608;23.362;2023-10-08T09:38:31;156194.97;;;20.08;34.14
10127;BME280;13080;42.608;23.362;2023-10-08T09:40:59;156214.56;;;20.15;33.74
10127;BME280;13080;42.608;23.362;2023-10-08T09:43:28;156172.72;;;19.99;34.33
10127;BME280;13080;42.608;23.362;2023-10-08T09:46:00;156163.59;;;19.96;34.60
10127;BME280;13080;42.608;23.362;2023-10-08T09:48:33;156180.59;;;20.02;33.28
10127;BME280;13080;42.608;23.362;2023-10-08T09:51:02;156191.03;;;20.06;33.49
10127;BME280;13080;42.608;23.362;2023-10-08T09:53:38;156240.72;;;20.26;34.58
10127;BME280;13080;42.608;23.362;2023-10-08T09:56:13;156327.09;;;20.60;34.07
10127;BME280;13080;42.608;23.362;2023-10-08T09:58:41;156384.63;;;20.82;33.29
10127;BME280;13080;42.608;23.362;2023-10-08T10:01:09;156404.28;;;20.90;33.07
10127;BME280;13080;42.608;23.362;2023-10-08T10:03:38;156447.44;;;21.07;32.51
10127;BME280;13080;42.608;23.362;2023-10-08T10:06:12;156443.50;;;21.05;32.45
10127;BME280;13080;42.608;23.362;2023-10-08T10:08:41;156493.22;;;21.25;32.03
10127;BME280;13080;42.608;23.362;2023-10-08T10:11:08;156539.09;;;21.43;32.75
10127;BME280;13080;42.608;23.362;2023-10-08T10:13:39;156597.97;;;21.66;32.62
10127;BME280;13080;42.608;23.362;2023-10-08T10:16:06;156584.88;;;21.61;31.58
10127;BME280;13080;42.608;23.362;2023-10-08T10:18:34;156582.28;;;21.59;33.50
10127;BME280;13080;42.608;23.362;2023-10-08T10:21:26;156548.25;;;21.46;32.60
10127;BME280;13080;42.608;23.362;2023-10-08T10:23:55;156557.38;;;21.50;33.39
10127;BME280;13080;42.608;23.362;2023-10-08T10:26:23;156582.28;;;21.59;33.04
10127;BME280;13080;42.608;23.362;2023-10-08T10:29:21;156540.38;;;21.43;33.57
10127;BME280;13080;42.608;23.362;2023-10-08T10:31:52;156561.34;;;21.51;32.91
10127;BME280;13080;42.608;23.362;2023-10-08T10:34:21;156536.50;;;21.42;34.25
10127;BME280;13080;42.608;23.362;2023-10-08T10:36:51;156495.88;;;21.26;33.23
10127;BME280;13080;42.608;23.362;2023-10-08T10:39:24;156465.75;;;21.14;33.77
10127;BME280;13080;42.608;23.362;2023-10-08T10:41:57;156493.22;;;21.25;33.65
10127;BME280;13080;42.608;23.362;2023-10-08T10:44:27;156469.69;;;21.15;34.29
10127;BME280;13080;42.608;23.362;2023-10-08T10:46:55;156494.53;;;21.25;34.90
10127;BME280;13080;42.608;23.362;2023-10-08T10:49:48;156518.06;;;21.34;34.85
10127;BME280;13080;42.608;23.362;2023-10-08T10:52:21;156519.41;;;21.35;33.99
10127;BME280;13080;42.608;23.362;2023-10-08T10:54:59;156519.41;;;21.35;33.93
10127;BME280;13080;42.608;23.362;2023-10-08T10:57:44;156546.97;;;21.46;34.26
10127;BME280;13080;42.608;23.362;2023-10-08T11:00:11;156558.75;;;21.50;34.48
10127;BME280;13080;42.608;23.362;2023-10-08T11:03:05;156549.56;;;21.47;34.11
10127;BME280;13080;42.608;23.362;2023-10-08T11:05:42;156546.97;;;21.46;35.01
10127;BME280;13080;42.608;23.362;2023-10-08T11:08:15;156528.56;;;21.38;34.46
10127;BME280;13080;42.608;23.362;2023-10-08T11:10:45;156524.66;;;21.37;35.09
10127;BME280;13080;42.608;23.362;2023-10-08T11:13:16;156541.72;;;21.44;34.85
10127;BME280;13080;42.608;23.362;2023-10-08T11:15:44;156571.81;;;21.55;35.02
10127;BME280;13080;42.608;23.362;2023-10-08T11:18:16;156601.91;;;21.67;35.22
10127;BME280;13080;42.608;23.362;2023-10-08T11:20:43;156613.69;;;21.72;36.30
10127;BME280;13080;42.608;23.362;2023-10-08T11:23:11;156620.22;;;21.74;35.38
10127;BME280;13080;42.608;23.362;2023-10-08T11:25:55;156575.75;;;21.57;35.28
10127;BME280;13080;42.608;23.362;2023-10-08T11:28:25;156566.56;;;21.53;35.35
10127;BME280;13080;42.608;23.362;2023-10-08T11:30:53;156569.16;;;21.54;35.81
10127;BME280;13080;42.608;23.362;2023-10-08T11:33:20;156595.38;;;21.65;36.21
10127;BME280;13080;42.608;23.362;2023-10-08T11:35:57;156650.38;;;21.86;36.43
10127;BME280;13080;42.608;23.362;2023-10-08T11:38:25;156688.28;;;22.01;36.18
10127;BME280;13080;42.608;23.362;2023-10-08T11:40:54;156654.25;;;21.88;35.36
10127;BME280;13080;42.608;23.362;2023-10-08T11:43:23;156671.28;;;21.94;36.29
10127;BME280;13080;42.608;23.362;2023-10-08T11:45:51;156607.16;;;21.69;36.32
10127;BME280;13080;42.608;23.362;2023-10-08T11:48:18;156618.91;;;21.74;36.74
10127;BME280;13080;42.608;23.362;2023-10-08T11:50:53;156605.84;;;21.69;36.37
10127;BME280;13080;42.608;23.362;2023-10-08T11:53:22;156600.59;;;21.67;36.70
10127;BME280;13080;42.608;23.362;2023-10-08T11:55:50;156611.09;;;21.71;36.66
10127;BME280;13080;42.608;23.362;2023-10-08T11:58:23;156612.38;;;21.71;36.55
10127;BME280;13080;42.608;23.362;2023-10-08T12:01:02;156621.56;;;21.75;37.10
10127;BME280;13080;42.608;23.362;2023-10-08T12:03:30;156649.00;;;21.86;37.64
10127;BME280;13080;42.608;23.362;2023-10-08T12:05:57;156643.78;;;21.84;36.35
10127;BME280;13080;42.608;23.362;2023-10-08T12:08:25;156612.38;;;21.71;37.02
10127;BME280;13080;42.608;23.362;2023-10-08T12:10:53;156575.75;;;21.57;37.91
10127;BME280;13080;42.608;23.362;2023-10-08T12:13:20;156515.47;;;21.33;37.88
10127;BME280;13080;42.608;23.362;2023-10-08T12:15:52;156472.28;;;21.16;37.87
10127;BME280;13080;42.608;23.362;2023-10-08T12:18:28;156447.44;;;21.07;37.69
10127;BME280;13080;42.608;23.362;2023-10-08T12:20:55;156408.19;;;20.91;38.22
10127;BME280;13080;42.608;23.362;2023-10-08T12:23:22;156409.53;;;20.92;38.69
10127;BME280;13080;42.608;23.362;2023-10-08T12:25:51;156392.53;;;20.85;39.40
10127;BME280;13080;42.608;23.362;2023-10-08T12:28:21;156368.94;;;20.76;38.47
10127;BME280;13080;42.608;23.362;2023-10-08T12:30:49;156351.91;;;20.69;38.62
10127;BME280;13080;42.608;23.362;2023-10-08T12:33:19;156382.03;;;20.81;38.57
10127;BME280;13080;42.608;23.362;2023-10-08T12:35:47;156409.53;;;20.92;39.19
10127;BME280;13080;42.608;23.362;2023-10-08T12:38:14;156453.97;;;21.09;38.11
10127;BME280;13080;42.608;23.362;2023-10-08T12:40:41;156503.72;;;21.29;37.59
10127;BME280;13080;42.608;23.362;2023-10-08T12:43:18;156556.09;;;21.49;37.46
10127;BME280;13080;42.608;23.362;2023-10-08T12:45:46;156601.91;;;21.67;37.46
10127;BME280;13080;42.608;23.362;2023-10-08T12:48:22;156594.06;;;21.64;36.45
10127;BME280;13080;42.608;23.362;2023-10-08T12:50:50;156582.28;;;21.59;37.13
10127;BME280;13080;42.608;23.362;2023-10-08T12:53:22;156618.91;;;21.74;37.30
10127;BME280;13080;42.608;23.362;2023-10-08T12:55:59;156584.88;;;21.61;36.79
10127;BME280;13080;42.608;23.362;2023-10-08T12:58:31;156565.28;;;21.53;36.91
10127;BME280;13080;42.608;23.362;2023-10-08T13:01:04;156552.16;;;21.48;37.57
10127;BME280;13080;42.608;23.362;2023-10-08T13:03:34;156575.75;;;21.57;37.53
10127;BME280;13080;42.608;23.362;2023-10-08T13:06:07;156525.97;;;21.37;37.36
10127;BME280;13080;42.608;23.362;2023-10-08T13:08:37;156507.66;;;21.30;38.47